Terminal Aerodrome Forecast
Issued by NWS

Home | Current Version | Previous Version | Text Only | Print | Product List | Glossary On
Versions: 1 2 3 4 5 6 7 8 9 10 11 12 13 14 15
000
FTAK31 PANC 171124
TAFADQ
TAF
PADQ 171124Z 1712/1812 27010KT P6SM FEW050
     FM171500 09007KT P6SM SCT035 BKN070
     FM171900 06014G20KT 6SM -RA BR OVC025
     FM172200 06021G28KT 4SM -RA BR OVC025
     FM180300 03023G31KT 6SM -RA BR OVC035=

USA.gov is the U.S. government's official web portal to all federal, state and local government web resources and services.